Terminal Aerodrome Forecast
Issued by NWS

Home | Current Version | Previous Version | Text Only | Print | Product List | Glossary On
Versions: 1 2 3 4 5 6 7 8 9 10 11 12 13 14 15 16
417
FTUS43 KEAX 060531
TAFMKC
TAF
KMKC 060531Z 0606/0706 18004KT P6SM BKN100
     FM060800 29005KT P6SM SCT150
     FM061400 25008KT P6SM SCT035
     FM070000 21007KT P6SM SCT100=

USA.gov is the U.S. government's official web portal to all federal, state and local government web resources and services.